sensor_id;sensor_type;location;lat;lon;timestamp;P1;durP1;ratioP1;P2;durP2;ratioP2
54157;SDS011;40065;49.894;10.358;2023-02-18T00:03:15;19.02;;;11.68;;
54157;SDS011;40065;49.894;10.358;2023-02-18T00:08:18;16.73;;;11.57;;
54157;SDS011;40065;49.894;10.358;2023-02-18T00:13:20;18.50;;;12.52;;
54157;SDS011;40065;49.894;10.358;2023-02-18T00:18:22;17.65;;;12.45;;
54157;SDS011;40065;49.894;10.358;2023-02-18T00:23:24;18.08;;;12.95;;
54157;SDS011;40065;49.894;10.358;2023-02-18T00:28:26;24.83;;;15.80;;
54157;SDS011;40065;49.894;10.358;2023-02-18T00:33:28;26.50;;;16.35;;
54157;SDS011;40065;49.894;10.358;2023-02-18T00:38:32;23.92;;;15.38;;
54157;SDS011;40065;49.894;10.358;2023-02-18T00:43:34;27.67;;;16.73;;
54157;SDS011;40065;49.894;10.358;2023-02-18T00:48:36;27.25;;;17.70;;
54157;SDS011;40065;49.894;10.358;2023-02-18T00:53:38;28.83;;;16.85;;
54157;SDS011;40065;49.894;10.358;2023-02-18T00:58:41;29.25;;;16.20;;
54157;SDS011;40065;49.894;10.358;2023-02-18T01:03:43;30.35;;;16.77;;
54157;SDS011;40065;49.894;10.358;2023-02-18T01:08:47;33.28;;;16.98;;
54157;SDS011;40065;49.894;10.358;2023-02-18T01:13:49;33.70;;;16.17;;
54157;SDS011;40065;49.894;10.358;2023-02-18T01:18:52;28.23;;;15.43;;
54157;SDS011;40065;49.894;10.358;2023-02-18T01:23:53;27.13;;;14.57;;
54157;SDS011;40065;49.894;10.358;2023-02-18T01:28:55;34.17;;;15.60;;
54157;SDS011;40065;49.894;10.358;2023-02-18T01:33:57;33.75;;;16.83;;
54157;SDS011;40065;49.894;10.358;2023-02-18T01:39:03;31.60;;;16.63;;
54157;SDS011;40065;49.894;10.358;2023-02-18T01:44:10;36.00;;;16.52;;
54157;SDS011;40065;49.894;10.358;2023-02-18T01:49:17;31.33;;;17.83;;
54157;SDS011;40065;49.894;10.358;2023-02-18T01:54:30;33.78;;;17.42;;
54157;SDS011;40065;49.894;10.358;2023-02-18T01:59:42;35.03;;;16.73;;
54157;SDS011;40065;49.894;10.358;2023-02-18T02:04:48;38.00;;;16.77;;
54157;SDS011;40065;49.894;10.358;2023-02-18T02:09:50;29.92;;;14.82;;
54157;SDS011;40065;49.894;10.358;2023-02-18T02:30:31;33.05;;;14.20;;
54157;SDS011;40065;49.894;10.358;2023-02-18T02:35:51;30.13;;;14.32;;
54157;SDS011;40065;49.894;10.358;2023-02-18T02:41:29;26.88;;;12.30;;
54157;SDS011;40065;49.894;10.358;2023-02-18T02:46:37;21.95;;;12.10;;
54157;SDS011;40065;49.894;10.358;2023-02-18T02:51:41;21.42;;;11.45;;
54157;SDS011;40065;49.894;10.358;2023-02-18T03:07:58;25.98;;;12.35;;
54157;SDS011;40065;49.894;10.358;2023-02-18T03:13:25;21.13;;;11.45;;
54157;SDS011;40065;49.894;10.358;2023-02-18T03:18:56;21.80;;;11.20;;
54157;SDS011;40065;49.894;10.358;2023-02-18T03:24:15;21.70;;;10.60;;
54157;SDS011;40065;49.894;10.358;2023-02-18T03:29:23;22.05;;;10.60;;
54157;SDS011;40065;49.894;10.358;2023-02-18T03:34:28;21.55;;;10.40;;
54157;SDS011;40065;49.894;10.358;2023-02-18T03:39:33;20.73;;;10.40;;
54157;SDS011;40065;49.894;10.358;2023-02-18T03:44:37;19.70;;;9.93;;
54157;SDS011;40065;49.894;10.358;2023-02-18T03:49:39;16.17;;;8.80;;
54157;SDS011;40065;49.894;10.358;2023-02-18T03:54:40;14.73;;;8.55;;
54157;SDS011;40065;49.894;10.358;2023-02-18T03:59:42;15.13;;;8.43;;
54157;SDS011;40065;49.894;10.358;2023-02-18T04:04:44;12.55;;;7.05;;
54157;SDS011;40065;49.894;10.358;2023-02-18T04:09:46;11.93;;;6.95;;
54157;SDS011;40065;49.894;10.358;2023-02-18T04:14:48;12.43;;;7.40;;
54157;SDS011;40065;49.894;10.358;2023-02-18T04:24:54;9.55;;;5.90;;
54157;SDS011;40065;49.894;10.358;2023-02-18T04:29:56;7.80;;;5.20;;
54157;SDS011;40065;49.894;10.358;2023-02-18T04:34:58;8.75;;;4.60;;
54157;SDS011;40065;49.894;10.358;2023-02-18T04:39:59;7.93;;;4.70;;
54157;SDS011;40065;49.894;10.358;2023-02-18T04:45:01;7.15;;;4.13;;
54157;SDS011;40065;49.894;10.358;2023-02-18T04:50:04;8.95;;;4.85;;
54157;SDS011;40065;49.894;10.358;2023-02-18T04:55:07;9.13;;;5.57;;
54157;SDS011;40065;49.894;10.358;2023-02-18T05:00:09;12.35;;;6.00;;
54157;SDS011;40065;49.894;10.358;2023-02-18T05:05:16;11.63;;;6.03;;
54157;SDS011;40065;49.894;10.358;2023-02-18T05:10:18;11.38;;;6.13;;
54157;SDS011;40065;49.894;10.358;2023-02-18T05:15:21;11.23;;;5.97;;
54157;SDS011;40065;49.894;10.358;2023-02-18T05:20:22;12.80;;;6.15;;
54157;SDS011;40065;49.894;10.358;2023-02-18T05:25:24;13.07;;;6.53;;
54157;SDS011;40065;49.894;10.358;2023-02-18T05:30:26;13.00;;;6.65;;
54157;SDS011;40065;49.894;10.358;2023-02-18T05:35:28;15.90;;;7.25;;
54157;SDS011;40065;49.894;10.358;2023-02-18T05:40:30;13.30;;;7.03;;
54157;SDS011;40065;49.894;10.358;2023-02-18T05:45:32;13.60;;;6.90;;
54157;SDS011;40065;49.894;10.358;2023-02-18T05:50:34;12.40;;;6.00;;
54157;SDS011;40065;49.894;10.358;2023-02-18T05:55:35;10.98;;;5.90;;
54157;SDS011;40065;49.894;10.358;2023-02-18T06:00:39;12.37;;;6.13;;
54157;SDS011;40065;49.894;10.358;2023-02-18T06:05:41;15.85;;;7.90;;
54157;SDS011;40065;49.894;10.358;2023-02-18T06:10:43;23.20;;;9.63;;
54157;SDS011;40065;49.894;10.358;2023-02-18T06:15:44;24.58;;;10.73;;
54157;SDS011;40065;49.894;10.358;2023-02-18T06:20:47;20.75;;;9.27;;
54157;SDS011;40065;49.894;10.358;2023-02-18T06:25:49;21.70;;;9.52;;
54157;SDS011;40065;49.894;10.358;2023-02-18T06:30:51;23.08;;;9.50;;
54157;SDS011;40065;49.894;10.358;2023-02-18T06:35:54;19.65;;;10.05;;
54157;SDS011;40065;49.894;10.358;2023-02-18T06:40:57;16.92;;;9.63;;
54157;SDS011;40065;49.894;10.358;2023-02-18T06:45:58;14.88;;;9.13;;
54157;SDS011;40065;49.894;10.358;2023-02-18T06:51:00;15.05;;;9.00;;
54157;SDS011;40065;49.894;10.358;2023-02-18T06:56:02;18.63;;;10.18;;
54157;SDS011;40065;49.894;10.358;2023-02-18T07:01:04;18.35;;;10.48;;
54157;SDS011;40065;49.894;10.358;2023-02-18T07:06:07;19.65;;;10.27;;
54157;SDS011;40065;49.894;10.358;2023-02-18T07:11:09;13.02;;;8.45;;
54157;SDS011;40065;49.894;10.358;2023-02-18T07:16:11;14.63;;;7.35;;
54157;SDS011;40065;49.894;10.358;2023-02-18T07:21:14;13.32;;;8.60;;
54157;SDS011;40065;49.894;10.358;2023-02-18T07:26:15;13.50;;;8.93;;
54157;SDS011;40065;49.894;10.358;2023-02-18T07:31:17;16.25;;;10.02;;
54157;SDS011;40065;49.894;10.358;2023-02-18T07:36:20;16.45;;;10.27;;
54157;SDS011;40065;49.894;10.358;2023-02-18T07:41:21;17.70;;;11.65;;
54157;SDS011;40065;49.894;10.358;2023-02-18T07:46:23;18.42;;;11.48;;
54157;SDS011;40065;49.894;10.358;2023-02-18T07:51:25;16.98;;;12.02;;
54157;SDS011;40065;49.894;10.358;2023-02-18T07:56:27;22.65;;;15.10;;
54157;SDS011;40065;49.894;10.358;2023-02-18T08:01:29;16.48;;;11.35;;
54157;SDS011;40065;49.894;10.358;2023-02-18T08:06:36;17.10;;;10.93;;
54157;SDS011;40065;49.894;10.358;2023-02-18T08:11:39;13.80;;;10.38;;
54157;SDS011;40065;49.894;10.358;2023-02-18T08:16:41;13.98;;;10.23;;
54157;SDS011;40065;49.894;10.358;2023-02-18T08:21:43;15.75;;;10.68;;
54157;SDS011;40065;49.894;10.358;2023-02-18T08:26:46;12.80;;;9.27;;
54157;SDS011;40065;49.894;10.358;2023-02-18T08:32:00;10.65;;;7.88;;
54157;SDS011;40065;49.894;10.358;2023-02-18T08:37:02;9.95;;;6.72;;
54157;SDS011;40065;49.894;10.358;2023-02-18T08:42:04;11.32;;;8.00;;
54157;SDS011;40065;49.894;10.358;2023-02-18T08:47:06;9.30;;;7.40;;
54157;SDS011;40065;49.894;10.358;2023-02-18T08:52:28;10.07;;;8.10;;
54157;SDS011;40065;49.894;10.358;2023-02-18T08:57:30;11.32;;;9.05;;
54157;SDS011;40065;49.894;10.358;2023-02-18T09:02:32;11.57;;;9.40;;
54157;SDS011;40065;49.894;10.358;2023-02-18T09:07:34;13.35;;;9.75;;
54157;SDS011;40065;49.894;10.358;2023-02-18T09:12:36;13.10;;;10.38;;
54157;SDS011;40065;49.894;10.358;2023-02-18T09:17:38;14.38;;;10.73;;
54157;SDS011;40065;49.894;10.358;2023-02-18T09:22:40;15.55;;;11.95;;
54157;SDS011;40065;49.894;10.358;2023-02-18T09:27:42;14.68;;;11.40;;
54157;SDS011;40065;49.894;10.358;2023-02-18T09:32:44;12.52;;;9.93;;
54157;SDS011;40065;49.894;10.358;2023-02-18T09:37:45;13.43;;;10.63;;
54157;SDS011;40065;49.894;10.358;2023-02-18T09:42:47;12.43;;;9.88;;
54157;SDS011;40065;49.894;10.358;2023-02-18T09:47:49;12.45;;;8.88;;
54157;SDS011;40065;49.894;10.358;2023-02-18T09:52:52;12.15;;;9.35;;
54157;SDS011;40065;49.894;10.358;2023-02-18T09:57:55;12.45;;;8.82;;
54157;SDS011;40065;49.894;10.358;2023-02-18T10:03:10;10.55;;;7.75;;
54157;SDS011;40065;49.894;10.358;2023-02-18T10:08:18;10.45;;;8.27;;
54157;SDS011;40065;49.894;10.358;2023-02-18T10:13:26;12.93;;;8.40;;
54157;SDS011;40065;49.894;10.358;2023-02-18T10:18:30;9.88;;;7.22;;
54157;SDS011;40065;49.894;10.358;2023-02-18T10:23:39;9.38;;;7.00;;
54157;SDS011;40065;49.894;10.358;2023-02-18T10:28:54;8.35;;;6.15;;
54157;SDS011;40065;49.894;10.358;2023-02-18T10:34:06;8.45;;;6.10;;
54157;SDS011;40065;49.894;10.358;2023-02-18T10:45:08;8.20;;;5.63;;
54157;SDS011;40065;49.894;10.358;2023-02-18T10:50:34;7.20;;;5.60;;
54157;SDS011;40065;49.894;10.358;2023-02-18T10:55:43;8.48;;;5.90;;
54157;SDS011;40065;49.894;10.358;2023-02-18T11:00:46;7.82;;;5.50;;
54157;SDS011;40065;49.894;10.358;2023-02-18T11:05:55;8.38;;;4.90;;
54157;SDS011;40065;49.894;10.358;2023-02-18T11:10:57;8.52;;;5.65;;
54157;SDS011;40065;49.894;10.358;2023-02-18T11:16:00;8.98;;;5.40;;
54157;SDS011;40065;49.894;10.358;2023-02-18T11:21:52;10.45;;;5.75;;
54157;SDS011;40065;49.894;10.358;2023-02-18T11:26:38;9.40;;;5.68;;
54157;SDS011;40065;49.894;10.358;2023-02-18T11:31:42;8.43;;;5.82;;
54157;SDS011;40065;49.894;10.358;2023-02-18T11:36:47;7.88;;;4.97;;
54157;SDS011;40065;49.894;10.358;2023-02-18T11:42:05;6.10;;;4.10;;
54157;SDS011;40065;49.894;10.358;2023-02-18T11:52:17;6.15;;;4.18;;
54157;SDS011;40065;49.894;10.358;2023-02-18T11:57:21;5.85;;;4.35;;
54157;SDS011;40065;49.894;10.358;2023-02-18T12:02:33;7.28;;;4.93;;
54157;SDS011;40065;49.894;10.358;2023-02-18T12:07:43;6.78;;;4.68;;
54157;SDS011;40065;49.894;10.358;2023-02-18T12:33:58;5.05;;;3.80;;
54157;SDS011;40065;49.894;10.358;2023-02-18T12:44:58;7.00;;;4.45;;
54157;SDS011;40065;49.894;10.358;2023-02-18T12:50:32;5.90;;;3.53;;
54157;SDS011;40065;49.894;10.358;2023-02-18T12:56:07;5.18;;;3.90;;
54157;SDS011;40065;49.894;10.358;2023-02-18T13:17:08;4.43;;;2.80;;
54157;SDS011;40065;49.894;10.358;2023-02-18T13:22:13;3.70;;;2.50;;
54157;SDS011;40065;49.894;10.358;2023-02-18T13:27:21;4.07;;;2.55;;
54157;SDS011;40065;49.894;10.358;2023-02-18T13:32:38;4.45;;;2.42;;
54157;SDS011;40065;49.894;10.358;2023-02-18T13:37:53;4.28;;;2.50;;
54157;SDS011;40065;49.894;10.358;2023-02-18T13:48:43;4.22;;;2.33;;
54157;SDS011;40065;49.894;10.358;2023-02-18T13:53:49;3.65;;;2.40;;
54157;SDS011;40065;49.894;10.358;2023-02-18T14:04:33;3.53;;;2.22;;
54157;SDS011;40065;49.894;10.358;2023-02-18T14:09:42;3.33;;;2.30;;
54157;SDS011;40065;49.894;10.358;2023-02-18T14:14:44;3.65;;;2.30;;
54157;SDS011;40065;49.894;10.358;2023-02-18T14:20:21;4.60;;;2.22;;
54157;SDS011;40065;49.894;10.358;2023-02-18T14:35:41;3.47;;;2.38;;
54157;SDS011;40065;49.894;10.358;2023-02-18T14:51:21;4.38;;;2.40;;
54157;SDS011;40065;49.894;10.358;2023-02-18T14:56:25;5.65;;;2.80;;
54157;SDS011;40065;49.894;10.358;2023-02-18T15:01:28;3.67;;;2.60;;
54157;SDS011;40065;49.894;10.358;2023-02-18T15:11:36;5.07;;;3.00;;
54157;SDS011;40065;49.894;10.358;2023-02-18T15:16:41;6.07;;;3.10;;
54157;SDS011;40065;49.894;10.358;2023-02-18T15:21:46;5.65;;;3.13;;
54157;SDS011;40065;49.894;10.358;2023-02-18T15:26:50;4.43;;;3.00;;
54157;SDS011;40065;49.894;10.358;2023-02-18T15:31:54;6.35;;;3.75;;
54157;SDS011;40065;49.894;10.358;2023-02-18T15:37:02;6.38;;;3.85;;
54157;SDS011;40065;49.894;10.358;2023-02-18T15:42:24;5.97;;;3.65;;
54157;SDS011;40065;49.894;10.358;2023-02-18T15:47:30;5.47;;;3.80;;
54157;SDS011;40065;49.894;10.358;2023-02-18T15:52:33;7.75;;;4.22;;
54157;SDS011;40065;49.894;10.358;2023-02-18T15:57:39;6.38;;;4.10;;
54157;SDS011;40065;49.894;10.358;2023-02-18T16:02:50;5.15;;;3.47;;
54157;SDS011;40065;49.894;10.358;2023-02-18T16:07:58;4.10;;;3.08;;
54157;SDS011;40065;49.894;10.358;2023-02-18T16:13:02;8.30;;;3.40;;
54157;SDS011;40065;49.894;10.358;2023-02-18T16:18:17;5.30;;;3.35;;
54157;SDS011;40065;49.894;10.358;2023-02-18T16:23:29;3.78;;;2.60;;
54157;SDS011;40065;49.894;10.358;2023-02-18T16:28:36;4.03;;;2.70;;
54157;SDS011;40065;49.894;10.358;2023-02-18T16:33:42;4.85;;;2.90;;
54157;SDS011;40065;49.894;10.358;2023-02-18T16:38:44;5.90;;;3.83;;
54157;SDS011;40065;49.894;10.358;2023-02-18T16:43:46;5.80;;;3.55;;
54157;SDS011;40065;49.894;10.358;2023-02-18T16:48:48;5.97;;;3.38;;
54157;SDS011;40065;49.894;10.358;2023-02-18T16:53:51;5.00;;;3.55;;
54157;SDS011;40065;49.894;10.358;2023-02-18T16:58:52;6.55;;;3.63;;
54157;SDS011;40065;49.894;10.358;2023-02-18T17:03:54;4.88;;;3.88;;
54157;SDS011;40065;49.894;10.358;2023-02-18T17:08:58;5.63;;;4.00;;
54157;SDS011;40065;49.894;10.358;2023-02-18T17:14:00;5.90;;;4.40;;
54157;SDS011;40065;49.894;10.358;2023-02-18T17:19:05;5.85;;;4.10;;
54157;SDS011;40065;49.894;10.358;2023-02-18T17:24:14;6.82;;;4.53;;
54157;SDS011;40065;49.894;10.358;2023-02-18T17:29:18;7.38;;;4.88;;
54157;SDS011;40065;49.894;10.358;2023-02-18T17:34:24;9.18;;;5.72;;
54157;SDS011;40065;49.894;10.358;2023-02-18T17:39:28;7.28;;;4.82;;
54157;SDS011;40065;49.894;10.358;2023-02-18T17:44:31;6.63;;;4.30;;
54157;SDS011;40065;49.894;10.358;2023-02-18T17:49:33;9.93;;;4.97;;
54157;SDS011;40065;49.894;10.358;2023-02-18T17:54:35;6.95;;;4.78;;
54157;SDS011;40065;49.894;10.358;2023-02-18T17:59:36;8.80;;;5.07;;
54157;SDS011;40065;49.894;10.358;2023-02-18T18:04:38;7.30;;;5.40;;
54157;SDS011;40065;49.894;10.358;2023-02-18T18:09:40;8.18;;;4.55;;
54157;SDS011;40065;49.894;10.358;2023-02-18T18:14:41;7.15;;;5.05;;
54157;SDS011;40065;49.894;10.358;2023-02-18T18:19:43;6.63;;;5.35;;
54157;SDS011;40065;49.894;10.358;2023-02-18T18:24:45;12.05;;;7.05;;
54157;SDS011;40065;49.894;10.358;2023-02-18T18:29:47;7.60;;;5.78;;
54157;SDS011;40065;49.894;10.358;2023-02-18T18:34:49;7.82;;;5.22;;
54157;SDS011;40065;49.894;10.358;2023-02-18T18:39:50;8.32;;;5.10;;
54157;SDS011;40065;49.894;10.358;2023-02-18T18:44:52;8.95;;;5.68;;
54157;SDS011;40065;49.894;10.358;2023-02-18T18:49:54;7.15;;;4.93;;
54157;SDS011;40065;49.894;10.358;2023-02-18T18:54:56;8.38;;;5.43;;
54157;SDS011;40065;49.894;10.358;2023-02-18T18:59:58;8.65;;;5.18;;
54157;SDS011;40065;49.894;10.358;2023-02-18T19:04:59;7.47;;;5.20;;
54157;SDS011;40065;49.894;10.358;2023-02-18T19:10:05;8.98;;;5.03;;
54157;SDS011;40065;49.894;10.358;2023-02-18T19:15:15;10.65;;;5.70;;
54157;SDS011;40065;49.894;10.358;2023-02-18T19:20:21;8.65;;;5.10;;
54157;SDS011;40065;49.894;10.358;2023-02-18T19:25:25;8.13;;;5.18;;
54157;SDS011;40065;49.894;10.358;2023-02-18T19:30:28;6.78;;;4.88;;
54157;SDS011;40065;49.894;10.358;2023-02-18T19:35:35;7.80;;;5.03;;
54157;SDS011;40065;49.894;10.358;2023-02-18T19:40:40;7.43;;;5.00;;
54157;SDS011;40065;49.894;10.358;2023-02-18T19:45:44;9.73;;;5.13;;
54157;SDS011;40065;49.894;10.358;2023-02-18T19:50:47;8.07;;;5.93;;
54157;SDS011;40065;49.894;10.358;2023-02-18T19:55:55;7.35;;;5.25;;
54157;SDS011;40065;49.894;10.358;2023-02-18T20:00:57;9.20;;;5.60;;
54157;SDS011;40065;49.894;10.358;2023-02-18T20:05:59;9.02;;;6.38;;
54157;SDS011;40065;49.894;10.358;2023-02-18T20:11:01;7.82;;;5.95;;
54157;SDS011;40065;49.894;10.358;2023-02-18T20:16:07;8.20;;;5.43;;
54157;SDS011;40065;49.894;10.358;2023-02-18T20:21:09;8.93;;;6.05;;
54157;SDS011;40065;49.894;10.358;2023-02-18T20:26:12;7.70;;;4.30;;
54157;SDS011;40065;49.894;10.358;2023-02-18T20:31:15;7.72;;;4.57;;
54157;SDS011;40065;49.894;10.358;2023-02-18T20:36:17;7.05;;;4.88;;
54157;SDS011;40065;49.894;10.358;2023-02-18T20:41:19;8.35;;;5.32;;
54157;SDS011;40065;49.894;10.358;2023-02-18T20:46:22;7.65;;;5.20;;
54157;SDS011;40065;49.894;10.358;2023-02-18T20:51:24;8.63;;;4.70;;
54157;SDS011;40065;49.894;10.358;2023-02-18T20:56:26;7.53;;;4.20;;
54157;SDS011;40065;49.894;10.358;2023-02-18T21:01:28;6.65;;;4.18;;
54157;SDS011;40065;49.894;10.358;2023-02-18T21:06:30;6.10;;;4.18;;
54157;SDS011;40065;49.894;10.358;2023-02-18T21:11:32;5.95;;;3.83;;
54157;SDS011;40065;49.894;10.358;2023-02-18T21:16:34;5.47;;;4.20;;
54157;SDS011;40065;49.894;10.358;2023-02-18T21:21:39;7.63;;;5.95;;
54157;SDS011;40065;49.894;10.358;2023-02-18T21:26:42;8.38;;;4.25;;
54157;SDS011;40065;49.894;10.358;2023-02-18T21:31:44;6.57;;;4.55;;
54157;SDS011;40065;49.894;10.358;2023-02-18T21:36:46;7.03;;;5.28;;
54157;SDS011;40065;49.894;10.358;2023-02-18T21:41:47;11.20;;;4.65;;
54157;SDS011;40065;49.894;10.358;2023-02-18T21:46:49;7.72;;;5.05;;
54157;SDS011;40065;49.894;10.358;2023-02-18T21:51:51;6.43;;;4.88;;
54157;SDS011;40065;49.894;10.358;2023-02-18T21:57:16;6.95;;;4.88;;
54157;SDS011;40065;49.894;10.358;2023-02-18T22:02:20;6.18;;;4.40;;
54157;SDS011;40065;49.894;10.358;2023-02-18T22:07:27;6.40;;;4.05;;
54157;SDS011;40065;49.894;10.358;2023-02-18T22:12:30;6.72;;;4.40;;
54157;SDS011;40065;49.894;10.358;2023-02-18T22:17:32;6.38;;;4.50;;
54157;SDS011;40065;49.894;10.358;2023-02-18T22:22:35;6.88;;;4.63;;
54157;SDS011;40065;49.894;10.358;2023-02-18T22:27:36;5.68;;;3.92;;
54157;SDS011;40065;49.894;10.358;2023-02-18T22:32:38;6.82;;;4.53;;
54157;SDS011;40065;49.894;10.358;2023-02-18T22:37:40;6.20;;;4.45;;
54157;SDS011;40065;49.894;10.358;2023-02-18T22:42:41;7.05;;;4.55;;
54157;SDS011;40065;49.894;10.358;2023-02-18T22:47:43;6.30;;;4.45;;
54157;SDS011;40065;49.894;10.358;2023-02-18T22:52:45;5.95;;;4.57;;
54157;SDS011;40065;49.894;10.358;2023-02-18T22:57:47;6.97;;;4.68;;
54157;SDS011;40065;49.894;10.358;2023-02-18T23:02:49;7.28;;;5.20;;
54157;SDS011;40065;49.894;10.358;2023-02-18T23:07:52;6.82;;;4.80;;
54157;SDS011;40065;49.894;10.358;2023-02-18T23:12:53;7.70;;;5.05;;
54157;SDS011;40065;49.894;10.358;2023-02-18T23:17:55;8.05;;;5.45;;
54157;SDS011;40065;49.894;10.358;2023-02-18T23:22:57;7.65;;;5.18;;
54157;SDS011;40065;49.894;10.358;2023-02-18T23:27:59;7.97;;;5.00;;
54157;SDS011;40065;49.894;10.358;2023-02-18T23:33:01;9.27;;;5.60;;
54157;SDS011;40065;49.894;10.358;2023-02-18T23:38:02;9.05;;;6.45;;
54157;SDS011;40065;49.894;10.358;2023-02-18T23:43:05;9.35;;;6.53;;
54157;SDS011;40065;49.894;10.358;2023-02-18T23:48:07;8.98;;;6.88;;
54157;SDS011;40065;49.894;10.358;2023-02-18T23:53:08;8.88;;;6.80;;
54157;SDS011;40065;49.894;10.358;2023-02-18T23:58:10;11.52;;;8.18;;
